Time;durP1;ratioP1;P1;durP2;ratioP2;P2;SDS_P1;SDS_P2;PMS_P1;PMS_P2;Temp;Humidity;BMP_temperature;BMP_pressure;BME280_temperature;BME280_humidity;BME280_pressure;Samples;Min_cycle;Max_cycle;Signal;HPM_P1;HPM_P2
2023/03/30 00:00:21;;;;;;;0.32;0.32;;;11.90;99.90;;;;;;5006058;28;20104;-67
2023/03/30 00:02:49;;;;;;;0.10;0.10;;;11.90;99.90;;;;;;5008209;28;20074;-67
2023/03/30 00:05:16;;;;;;;0.20;0.20;;;11.90;99.90;;;;;;5005849;28;20050;-67
2023/03/30 00:07:44;;;;;;;0.70;0.70;;;11.90;99.90;;;;;;5001745;28;20042;-66
2023/03/30 00:10:18;;;;;;;0.20;0.20;;;11.90;99.90;;;;;;5002900;28;20092;-67
2023/03/30 00:12:46;;;;;;;0.30;0.30;;;12.00;99.90;;;;;;5004089;28;20046;-67
2023/03/30 00:15:14;;;;;;;0.10;0.10;;;12.00;99.90;;;;;;5001088;28;20045;-67
2023/03/30 00:17:40;;;;;;;0.75;0.68;;;11.90;99.90;;;;;;5007924;28;20497;-67
2023/03/30 00:20:10;;;;;;;0.10;0.10;;;12.00;99.90;;;;;;5000870;28;20049;-67
2023/03/30 00:22:40;;;;;;;0.32;0.32;;;12.00;99.90;;;;;;5001582;28;20050;-67
2023/03/30 00:25:07;;;;;;;0.10;0.10;;;12.00;99.90;;;;;;4992240;28;20036;-67
2023/03/30 00:27:34;;;;;;;0.22;0.22;;;12.10;99.90;;;;;;4998080;28;20042;-67
2023/03/30 00:30:00;;;;;;;0.10;0.10;;;12.10;99.90;;;;;;5009530;28;20528;-67
2023/03/30 00:32:26;;;;;;;0.22;0.22;;;12.10;99.90;;;;;;5009336;28;20038;-67
2023/03/30 00:34:51;;;;;;;0.68;0.68;;;12.20;99.90;;;;;;5006177;28;20088;-67
2023/03/30 00:37:17;;;;;;;0.75;0.75;;;12.20;99.90;;;;;;5010123;28;20053;-67
2023/03/30 00:39:43;;;;;;;0.65;0.65;;;12.20;99.90;;;;;;5011338;28;20408;-67
2023/03/30 00:42:15;;;;;;;0.08;0.08;;;12.20;99.90;;;;;;5013131;28;20064;-67
2023/03/30 00:45:08;;;;;;;0.22;0.20;;;12.20;99.90;;;;;;5008186;28;20077;-67
2023/03/30 00:47:38;;;;;;;0.05;0.05;;;12.10;99.90;;;;;;5010887;28;20512;-67
2023/03/30 00:50:06;;;;;;;0.63;0.63;;;12.10;99.90;;;;;;5008004;28;20042;-67
2023/03/30 00:52:36;;;;;;;0.15;0.15;;;12.10;99.90;;;;;;5005723;28;20045;-67
2023/03/30 00:55:06;;;;;;;0.10;0.10;;;12.10;99.90;;;;;;5012233;28;20037;-67
2023/03/30 00:57:35;;;;;;;0.65;0.43;;;12.10;99.90;;;;;;4999096;28;20406;-67
2023/03/30 01:00:01;;;;;;;0.38;0.38;;;12.10;99.90;;;;;;4997127;28;20096;-66
2023/03/30 01:02:30;;;;;;;0.32;0.32;;;12.10;99.90;;;;;;5005100;28;20042;-66
2023/03/30 01:04:56;;;;;;;2.65;1.65;;;12.10;99.90;;;;;;5008298;28;20116;-67
2023/03/30 01:07:23;;;;;;;0.40;0.40;;;12.10;99.90;;;;;;5014950;28;20565;-67
2023/03/30 01:09:51;;;;;;;0.40;0.40;;;12.20;99.90;;;;;;5022017;28;20048;-67
2023/03/30 01:12:18;;;;;;;0.65;0.65;;;12.30;99.90;;;;;;5001958;28;20042;-67
2023/03/30 01:14:45;;;;;;;0.25;0.25;;;12.50;99.90;;;;;;5002851;28;20045;-67
2023/03/30 01:17:22;;;;;;;0.22;0.22;;;12.40;99.90;;;;;;5011735;28;20080;-67
2023/03/30 01:20:10;;;;;;;0.90;0.90;;;12.40;99.90;;;;;;5004493;28;20042;-67
2023/03/30 01:23:09;;;;;;;0.10;0.10;;;12.50;99.90;;;;;;5004553;28;20102;-67
2023/03/30 01:25:49;;;;;;;0.38;0.38;;;12.50;99.90;;;;;;5007160;28;20476;-67
2023/03/30 01:28:24;;;;;;;0.68;0.68;;;12.40;99.90;;;;;;5003692;28;20045;-67
2023/03/30 01:31:05;;;;;;;2.80;1.08;;;12.40;99.90;;;;;;5007612;28;20084;-67
2023/03/30 01:34:00;;;;;;;0.90;0.90;;;12.40;99.90;;;;;;5005000;28;20095;-67
2023/03/30 01:37:07;;;;;;;0.00;0.00;;;12.40;99.90;;;;;;5008326;28;20038;-67
2023/03/30 01:39:51;;;;;;;0.08;0.08;;;12.40;99.90;;;;;;5001292;28;20509;-67
2023/03/30 01:42:42;;;;;;;0.32;0.32;;;12.40;99.90;;;;;;5008554;28;20138;-67
2023/03/30 01:45:15;;;;;;;0.52;0.52;;;12.30;99.90;;;;;;5006127;28;20050;-67
2023/03/30 01:47:50;;;;;;;0.00;0.00;;;12.30;99.90;;;;;;5002459;28;20061;-66
2023/03/30 01:50:30;;;;;;;0.10;0.10;;;12.30;99.90;;;;;;5007514;28;20145;-67
2023/03/30 01:53:23;;;;;;;3.42;1.10;;;12.20;99.90;;;;;;5007684;28;20406;-66
2023/03/30 01:55:59;;;;;;;0.10;0.10;;;12.10;99.90;;;;;;5003167;28;20819;-67
2023/03/30 01:58:40;;;;;;;0.10;0.10;;;12.10;99.90;;;;;;5001961;28;20121;-66
2023/03/30 02:01:07;;;;;;;0.40;0.40;;;12.10;99.90;;;;;;5011203;28;20397;-67
2023/03/30 02:03:37;;;;;;;2.17;0.63;;;12.00;99.90;;;;;;5010440;28;20477;-67
2023/03/30 02:06:14;;;;;;;0.73;0.50;;;12.00;99.90;;;;;;5014178;28;20045;-67
2023/03/30 02:08:41;;;;;;;0.38;0.38;;;12.00;99.90;;;;;;4996256;28;20058;-66
2023/03/30 02:11:07;;;;;;;1.13;0.95;;;12.10;99.90;;;;;;5006410;28;20156;-67
2023/03/30 02:13:35;;;;;;;1.02;1.02;;;12.10;99.90;;;;;;5010334;28;20132;-67
2023/03/30 02:16:21;;;;;;;0.05;0.05;;;12.00;99.90;;;;;;5004514;28;20049;-67
2023/03/30 02:18:47;;;;;;;1.02;0.95;;;12.00;99.90;;;;;;5000407;28;20042;-67
2023/03/30 02:21:12;;;;;;;0.30;0.30;;;11.90;99.90;;;;;;5010427;28;20048;-67
2023/03/30 02:23:42;;;;;;;0.10;0.10;;;11.90;99.90;;;;;;5003505;28;20387;-67
2023/03/30 02:26:09;;;;;;;0.13;0.13;;;11.90;99.90;;;;;;5010174;28;20049;-67
2023/03/30 02:28:35;;;;;;;6.95;3.13;;;11.80;99.90;;;;;;5012179;28;20057;-67
2023/03/30 02:31:02;;;;;;;0.40;0.40;;;11.80;99.90;;;;;;5005815;28;20397;-67
2023/03/30 02:33:46;;;;;;;0.10;0.10;;;11.80;99.90;;;;;;4998978;28;20053;-67
2023/03/30 02:36:33;;;;;;;0.20;0.20;;;11.90;99.90;;;;;;5009216;28;20046;-67
2023/03/30 02:39:16;;;;;;;0.20;0.20;;;11.90;99.90;;;;;;5000620;28;20046;-67
2023/03/30 02:42:00;;;;;;;0.20;0.20;;;11.90;99.90;;;;;;5007449;28;20049;-67
2023/03/30 02:44:45;;;;;;;30.77;2.10;;;11.90;99.90;;;;;;5006467;28;20085;-66
2023/03/30 02:47:26;;;;;;;0.38;0.38;;;11.90;99.90;;;;;;5000974;28;20057;-67
2023/03/30 02:50:01;;;;;;;0.30;0.30;;;12.00;99.90;;;;;;5006195;28;20053;-67
2023/03/30 02:52:45;;;;;;;1.23;1.13;;;11.90;99.90;;;;;;5009300;28;20537;-66
2023/03/30 02:55:19;;;;;;;;;;;11.90;99.90;;;;;;5001602;28;20724;-66
2023/03/30 02:58:02;;;;;;;0.30;0.30;;;11.80;99.90;;;;;;5003418;28;19921;-67
2023/03/30 03:00:51;;;;;;;0.10;0.10;;;11.80;99.90;;;;;;5008975;28;20046;-67
2023/03/30 03:03:32;;;;;;;0.10;0.10;;;11.80;99.90;;;;;;4991263;28;20115;-67
2023/03/30 03:06:01;;;;;;;0.10;0.10;;;11.70;99.90;;;;;;5002569;28;20045;-67
2023/03/30 03:08:32;;;;;;;0.45;0.45;;;11.70;99.90;;;;;;5010649;28;20042;-67
2023/03/30 03:10:58;;;;;;;0.10;0.10;;;11.60;99.90;;;;;;5005018;28;20042;-67
2023/03/30 03:13:24;;;;;;;1.52;1.42;;;11.60;99.90;;;;;;5003967;28;20048;-67
2023/03/30 03:15:54;;;;;;;0.08;0.08;;;11.70;99.90;;;;;;5009535;28;20053;-67
2023/03/30 03:18:20;;;;;;;5.57;0.88;;;11.70;99.90;;;;;;5002755;28;20042;-67
2023/03/30 03:20:46;;;;;;;0.73;0.73;;;11.60;99.90;;;;;;5002653;28;20049;-67
2023/03/30 03:23:12;;;;;;;0.00;0.00;;;11.60;99.90;;;;;;5009647;28;20085;-67
2023/03/30 03:25:37;;;;;;;0.20;0.20;;;11.60;99.90;;;;;;5000504;28;20061;-67
2023/03/30 03:28:03;;;;;;;0.52;0.50;;;11.60;99.90;;;;;;5000974;28;20074;-67
2023/03/30 03:30:29;;;;;;;0.73;0.73;;;11.50;99.90;;;;;;4995663;28;20474;-67
2023/03/30 03:32:54;;;;;;;0.43;0.43;;;11.50;99.90;;;;;;5008756;28;20034;-67
2023/03/30 03:35:20;;;;;;;0.38;0.35;;;11.50;99.90;;;;;;5002207;28;20046;-67
2023/03/30 03:37:46;;;;;;;0.32;0.32;;;11.50;99.90;;;;;;5004410;28;20076;-67
2023/03/30 03:40:11;;;;;;;0.82;0.82;;;11.40;99.90;;;;;;5008522;28;20481;-67
2023/03/30 03:42:37;;;;;;;0.10;0.10;;;11.40;99.90;;;;;;5007723;28;20083;-67
2023/03/30 03:45:04;;;;;;;0.10;0.10;;;11.30;99.90;;;;;;5008426;28;20439;-66
2023/03/30 03:47:33;;;;;;;0.10;0.10;;;11.30;99.90;;;;;;5006437;28;20042;-66
2023/03/30 03:50:02;;;;;;;0.10;0.10;;;11.30;99.90;;;;;;5005414;28;20046;-67
2023/03/30 03:52:28;;;;;;;0.10;0.10;;;11.30;99.90;;;;;;5006123;28;20037;-66
2023/03/30 03:54:54;;;;;;;0.20;0.20;;;11.30;99.90;;;;;;5002243;28;20046;-66
2023/03/30 03:57:22;;;;;;;0.15;0.15;;;11.30;99.90;;;;;;5003743;28;20173;-67
2023/03/30 03:59:48;;;;;;;0.03;0.03;;;11.30;99.90;;;;;;5008485;28;20046;-66
2023/03/30 04:02:14;;;;;;;0.55;0.52;;;11.30;99.90;;;;;;5003246;28;20044;-67
2023/03/30 04:04:39;;;;;;;1.60;0.80;;;11.30;99.90;;;;;;4996248;28;20042;-66
2023/03/30 04:07:05;;;;;;;0.45;0.45;;;11.30;99.90;;;;;;5013732;28;20037;-66
2023/03/30 04:09:31;;;;;;;0.20;0.20;;;11.30;99.90;;;;;;5007131;28;20561;-66
2023/03/30 04:11:56;;;;;;;0.63;0.63;;;11.30;99.90;;;;;;4999770;28;20053;-66
2023/03/30 04:14:22;;;;;;;0.10;0.10;;;11.30;99.90;;;;;;5002419;28;20089;-67
2023/03/30 04:16:48;;;;;;;0.30;0.30;;;11.30;99.90;;;;;;5008877;28;20034;-67
2023/03/30 04:19:14;;;;;;;0.22;0.22;;;11.30;99.90;;;;;;5008101;28;20058;-67
2023/03/30 04:21:45;;;;;;;1.05;1.05;;;11.40;99.90;;;;;;4998289;28;20772;-67
2023/03/30 04:24:12;;;;;;;0.75;0.75;;;11.40;99.90;;;;;;5002535;28;20425;-67
2023/03/30 04:26:37;;;;;;;0.10;0.10;;;11.50;99.90;;;;;;5007812;28;20050;-66
2023/03/30 04:29:05;;;;;;;0.43;0.43;;;11.50;99.90;;;;;;4998648;28;20045;-67
2023/03/30 04:31:33;;;;;;;0.17;0.17;;;11.50;99.90;;;;;;5006262;28;20034;-67
2023/03/30 04:34:01;;;;;;;0.10;0.10;;;11.60;99.90;;;;;;4996621;28;20545;-67
2023/03/30 04:36:27;;;;;;;0.10;0.10;;;11.60;99.90;;;;;;5006533;28;20092;-66
2023/03/30 04:38:59;;;;;;;0.10;0.10;;;11.70;99.90;;;;;;5005081;28;20046;-67
2023/03/30 04:41:28;;;;;;;0.10;0.10;;;11.70;99.90;;;;;;4998118;28;20034;-66
2023/03/30 04:43:54;;;;;;;0.20;0.20;;;11.70;99.90;;;;;;5007721;28;20049;-66
2023/03/30 04:46:20;;;;;;;0.05;0.05;;;11.70;99.90;;;;;;5009120;28;20133;-66
2023/03/30 04:48:46;;;;;;;4.13;1.65;;;11.70;99.90;;;;;;4996983;28;20130;-66
2023/03/30 04:51:11;;;;;;;2.30;1.23;;;11.70;99.90;;;;;;4998481;28;20046;-67
2023/03/30 04:53:37;;;;;;;0.10;0.10;;;11.80;99.90;;;;;;4998079;28;20070;-66
2023/03/30 04:56:02;;;;;;;0.52;0.52;;;11.80;99.90;;;;;;5006653;28;20073;-67
2023/03/30 04:58:28;;;;;;;0.10;0.10;;;11.80;99.90;;;;;;5007827;28;20042;-66
2023/03/30 05:00:54;;;;;;;0.28;0.28;;;11.80;99.90;;;;;;5002119;28;20097;-66
2023/03/30 05:03:20;;;;;;;0.28;0.28;;;11.70;99.90;;;;;;5000359;28;20104;-66
2023/03/30 05:05:46;;;;;;;0.75;0.75;;;11.70;99.90;;;;;;5009436;28;20077;-66
2023/03/30 05:08:12;;;;;;;0.65;0.65;;;11.70;99.90;;;;;;4998553;28;20050;-67
2023/03/30 05:10:37;;;;;;;0.10;0.10;;;11.70;99.90;;;;;;5004238;28;20854;-66
2023/03/30 05:13:03;;;;;;;0.20;0.20;;;11.70;99.90;;;;;;5005735;28;20069;-67
2023/03/30 05:15:29;;;;;;;3.92;0.65;;;11.70;99.90;;;;;;5002544;28;20045;-66
2023/03/30 05:17:54;;;;;;;2.35;0.30;;;11.70;99.90;;;;;;5008530;28;20045;-67
2023/03/30 05:20:20;;;;;;;0.13;0.13;;;11.70;99.90;;;;;;5005214;28;20066;-67
2023/03/30 05:22:46;;;;;;;0.05;0.05;;;11.60;99.90;;;;;;5002409;28;20112;-67
2023/03/30 05:25:12;;;;;;;2.17;0.65;;;11.70;99.90;;;;;;5021596;28;20054;-67
2023/03/30 05:27:37;;;;;;;0.90;0.73;;;11.60;99.90;;;;;;5010290;28;20046;-67
2023/03/30 05:30:03;;;;;;;0.15;0.15;;;11.60;99.90;;;;;;5003765;28;20068;-67
2023/03/30 05:32:29;;;;;;;0.52;0.52;;;11.60;99.90;;;;;;5008955;28;20042;-67
2023/03/30 05:34:55;;;;;;;0.00;0.00;;;11.60;99.90;;;;;;5011124;28;20188;-67
2023/03/30 05:37:21;;;;;;;0.10;0.10;;;11.60;99.90;;;;;;5005437;28;20581;-66
2023/03/30 05:39:47;;;;;;;0.32;0.32;;;11.60;99.90;;;;;;5009257;28;20120;-67
2023/03/30 05:42:13;;;;;;;0.52;0.52;;;11.60;99.90;;;;;;5001830;28;20050;-66
2023/03/30 05:44:38;;;;;;;1.55;1.05;;;11.60;99.90;;;;;;5005229;28;20053;-66
2023/03/30 05:47:04;;;;;;;0.40;0.40;;;11.60;99.90;;;;;;5010138;28;20140;-66
2023/03/30 05:49:30;;;;;;;0.15;0.15;;;11.60;99.90;;;;;;5005940;28;20493;-66
2023/03/30 05:51:56;;;;;;;0.13;0.13;;;11.60;99.90;;;;;;5015203;28;20516;-67
2023/03/30 05:54:21;;;;;;;0.00;0.00;;;11.70;99.90;;;;;;5002327;28;20050;-67
2023/03/30 05:56:47;;;;;;;0.00;0.00;;;11.70;99.90;;;;;;4998160;28;20058;-67
2023/03/30 05:59:13;;;;;;;5.68;1.35;;;11.70;99.90;;;;;;5011393;28;20048;-66
2023/03/30 06:01:39;;;;;;;0.20;0.20;;;11.70;99.90;;;;;;5003810;28;20399;-66
2023/03/30 06:04:05;;;;;;;0.45;0.45;;;11.70;99.90;;;;;;5009527;28;20049;-67
2023/03/30 06:06:31;;;;;;;0.10;0.10;;;11.70;99.90;;;;;;5009045;28;20053;-67
2023/03/30 06:08:56;;;;;;;0.10;0.10;;;11.70;99.90;;;;;;5002741;28;20058;-66
2023/03/30 06:11:22;;;;;;;0.95;0.95;;;11.70;99.90;;;;;;4997049;28;20043;-67
2023/03/30 06:13:48;;;;;;;0.70;0.68;;;11.70;99.90;;;;;;5007171;28;20140;-66
2023/03/30 06:16:13;;;;;;;0.17;0.17;;;11.80;99.90;;;;;;5004988;28;20037;-67
2023/03/30 06:18:39;;;;;;;0.63;0.63;;;11.80;99.90;;;;;;5006475;28;20062;-67
2023/03/30 06:21:05;;;;;;;0.82;0.82;;;11.80;99.90;;;;;;5005678;28;20049;-67
2023/03/30 06:23:32;;;;;;;0.20;0.20;;;11.80;99.90;;;;;;5005782;28;20050;-67
2023/03/30 06:25:58;;;;;;;0.10;0.10;;;11.80;99.90;;;;;;5002386;28;20046;-67
2023/03/30 06:28:24;;;;;;;0.10;0.10;;;11.80;99.90;;;;;;5010663;28;20505;-67
2023/03/30 06:30:50;;;;;;;0.10;0.10;;;11.80;99.90;;;;;;5010467;28;20041;-66
2023/03/30 06:33:17;;;;;;;0.80;0.63;;;11.80;99.90;;;;;;5007364;28;20541;-67
2023/03/30 06:35:47;;;;;;;1.65;1.10;;;11.80;99.90;;;;;;5008991;28;20393;-67
2023/03/30 06:38:13;;;;;;;0.38;0.38;;;11.80;99.90;;;;;;5004659;28;20125;-67
2023/03/30 06:40:39;;;;;;;0.00;0.00;;;11.70;99.90;;;;;;4997186;28;20037;-67
2023/03/30 06:43:05;;;;;;;0.20;0.20;;;11.70;99.90;;;;;;5003274;28;20038;-67
2023/03/30 06:45:31;;;;;;;0.10;0.10;;;11.80;99.90;;;;;;5007111;28;20069;-66
2023/03/30 06:47:57;;;;;;;1.05;1.02;;;11.70;99.90;;;;;;5000270;28;20108;-67
2023/03/30 06:50:23;;;;;;;0.10;0.10;;;11.80;99.90;;;;;;5010517;28;20041;-67
2023/03/30 06:52:48;;;;;;;0.13;0.13;;;11.80;99.90;;;;;;5004217;28;20046;-67
2023/03/30 06:55:14;;;;;;;0.10;0.10;;;11.80;99.90;;;;;;5007024;28;20730;-66
2023/03/30 06:57:40;;;;;;;1.85;1.75;;;11.80;99.90;;;;;;4997410;28;20073;-67
2023/03/30 07:00:12;;;;;;;0.05;0.05;;;11.80;99.90;;;;;;5019265;28;20046;-67
2023/03/30 07:02:41;;;;;;;0.05;0.05;;;11.80;99.90;;;;;;4998928;28;20054;-67
2023/03/30 07:05:07;;;;;;;0.73;0.73;;;11.80;99.90;;;;;;5006690;28;20862;-67
2023/03/30 07:07:33;;;;;;;1.05;0.80;;;11.80;99.90;;;;;;5010955;28;20046;-66
2023/03/30 07:09:59;;;;;;;2.05;1.75;;;11.70;99.90;;;;;;5003421;28;20153;-66
2023/03/30 07:12:24;;;;;;;0.80;0.80;;;11.80;99.90;;;;;;5010581;28;20112;-66
2023/03/30 07:14:50;;;;;;;0.10;0.10;;;11.80;99.90;;;;;;5003082;28;20091;-67
2023/03/30 07:17:16;;;;;;;0.00;0.00;;;11.80;99.90;;;;;;5002126;28;20069;-67
2023/03/30 07:19:41;;;;;;;4.47;3.38;;;11.80;99.90;;;;;;5008941;28;20045;-67
2023/03/30 07:22:08;;;;;;;0.10;0.10;;;11.80;99.90;;;;;;5018554;28;20228;-67
2023/03/30 07:24:34;;;;;;;0.00;0.00;;;11.80;99.90;;;;;;5007282;28;20041;-67
2023/03/30 07:26:59;;;;;;;2.95;2.33;;;11.80;99.90;;;;;;4994400;28;20046;-66
2023/03/30 07:29:27;;;;;;;0.15;0.15;;;11.80;99.90;;;;;;5000440;28;20046;-67
2023/03/30 07:31:55;;;;;;;1.00;0.85;;;11.80;99.90;;;;;;5004459;28;20038;-67
2023/03/30 07:34:20;;;;;;;3.20;2.17;;;11.80;99.90;;;;;;5007041;28;20045;-67
2023/03/30 07:36:46;;;;;;;0.10;0.10;;;11.80;99.90;;;;;;4997086;28;20502;-66
2023/03/30 07:39:12;;;;;;;1.67;1.58;;;11.80;99.90;;;;;;5009065;28;20413;-67
2023/03/30 07:41:37;;;;;;;0.55;0.55;;;11.70;99.90;;;;;;5001555;28;20042;-66
2023/03/30 07:44:03;;;;;;;2.40;1.02;;;11.70;99.90;;;;;;5003834;28;20052;-66
2023/03/30 07:46:29;;;;;;;0.20;0.20;;;11.80;99.90;;;;;;5013399;28;20057;-65
2023/03/30 07:48:54;;;;;;;0.38;0.38;;;11.80;99.90;;;;;;5009657;28;20046;-66
2023/03/30 07:51:20;;;;;;;0.10;0.10;;;11.70;99.90;;;;;;5006368;28;20381;-66
2023/03/30 07:53:47;;;;;;;5.53;2.30;;;11.70;99.90;;;;;;5004868;28;20050;-66
2023/03/30 07:56:12;;;;;;;2.13;1.92;;;11.60;99.90;;;;;;5012789;28;20092;-66
2023/03/30 07:58:39;;;;;;;1.48;1.02;;;11.60;99.90;;;;;;5005529;28;20492;-66
2023/03/30 08:01:04;;;;;;;2.83;1.05;;;11.60;99.90;;;;;;4998396;28;20041;-66
2023/03/30 08:03:33;;;;;;;2.60;1.23;;;11.60;99.90;;;;;;5003141;28;20084;-66
2023/03/30 08:06:03;;;;;;;19.65;2.65;;;11.60;99.90;;;;;;5000519;28;20493;-66
2023/03/30 08:08:30;;;;;;;1.08;0.95;;;11.60;99.90;;;;;;5009259;28;20096;-66
2023/03/30 08:10:56;;;;;;;0.38;0.38;;;11.70;99.90;;;;;;5002705;28;20445;-66
2023/03/30 08:13:22;;;;;;;0.57;0.57;;;11.80;99.90;;;;;;4995882;28;20050;-66
2023/03/30 08:15:47;;;;;;;3.67;0.75;;;11.80;99.90;;;;;;5007649;28;20084;-66
2023/03/30 08:18:13;;;;;;;2.13;1.30;;;11.90;99.90;;;;;;5009449;28;20080;-67
2023/03/30 08:20:41;;;;;;;0.85;0.85;;;11.80;99.90;;;;;;4998941;28;20065;-66
2023/03/30 08:23:08;;;;;;;0.10;0.10;;;11.80;99.90;;;;;;4999610;28;20103;-67
2023/03/30 08:25:34;;;;;;;0.57;0.57;;;11.70;99.90;;;;;;5001854;28;20042;-67
2023/03/30 08:27:59;;;;;;;0.90;0.90;;;11.80;99.90;;;;;;5009493;28;20045;-67
2023/03/30 08:30:26;;;;;;;0.73;0.73;;;11.70;99.90;;;;;;5008044;28;20046;-66
2023/03/30 08:32:52;;;;;;;4.05;1.58;;;11.70;99.90;;;;;;5013778;28;20092;-66
2023/03/30 08:35:18;;;;;;;0.10;0.10;;;11.80;99.90;;;;;;4997296;28;20069;-67
2023/03/30 08:37:44;;;;;;;1.02;1.02;;;11.80;99.90;;;;;;5008018;28;20486;-66
2023/03/30 08:40:14;;;;;;;0.52;0.52;;;11.90;99.90;;;;;;4995130;28;20078;-66
2023/03/30 08:42:46;;;;;;;0.38;0.38;;;12.00;99.90;;;;;;5018986;28;20053;-66
2023/03/30 08:45:12;;;;;;;3.75;0.22;;;12.40;99.90;;;;;;4997194;28;20262;-66
2023/03/30 08:47:47;;;;;;;0.65;0.65;;;13.20;99.90;;;;;;5002001;28;20088;-66
2023/03/30 08:50:17;;;;;;;3.63;0.38;;;13.90;99.90;;;;;;5006799;28;20184;-65
2023/03/30 08:52:44;;;;;;;1.13;1.05;;;14.20;99.90;;;;;;5002960;28;20050;-65
2023/03/30 08:55:30;;;;;;;3.63;3.00;;;14.20;99.90;;;;;;5006965;28;20128;-65
2023/03/30 08:58:08;;;;;;;0.20;0.20;;;14.70;99.90;;;;;;5002135;28;20089;-65
2023/03/30 09:00:34;;;;;;;4.95;1.95;;;15.00;99.90;;;;;;5009122;28;20060;-65
2023/03/30 09:03:38;;;;;;;0.08;0.08;;;14.70;99.90;;;;;;5012620;28;20041;-67
2023/03/30 09:06:12;;;;;;;0.73;0.45;;;14.30;99.90;;;;;;5003713;28;20050;-67
2023/03/30 09:08:39;;;;;;;0.57;0.47;;;13.80;99.90;;;;;;4998088;28;20108;-67
2023/03/30 09:11:10;;;;;;;5.03;2.58;;;13.50;99.90;;;;;;5012007;28;20056;-67
2023/03/30 09:13:38;;;;;;;2.17;1.20;;;13.30;99.90;;;;;;5012598;28;20084;-64
2023/03/30 09:16:25;;;;;;;0.25;0.25;;;13.20;99.90;;;;;;5006427;28;20034;-64
2023/03/30 09:18:56;;;;;;;1.67;0.73;;;13.10;99.90;;;;;;5005681;28;20143;-64
2023/03/30 09:21:26;;;;;;;4.13;1.08;;;13.00;99.90;;;;;;5002081;28;20497;-64
2023/03/30 09:23:53;;;;;;;0.30;0.30;;;13.00;99.90;;;;;;5018888;28;20046;-64
2023/03/30 09:26:42;;;;;;;0.40;0.40;;;12.90;99.90;;;;;;5017155;28;20490;-64
2023/03/30 09:29:24;;;;;;;21.80;1.55;;;12.80;99.90;;;;;;4995340;28;20050;-64
2023/03/30 09:32:00;;;;;;;0.03;0.03;;;12.70;99.90;;;;;;5009443;28;20157;-64
2023/03/30 09:34:56;;;;;;;0.10;0.10;;;12.60;99.90;;;;;;5003369;28;20050;-64
2023/03/30 09:37:22;;;;;;;0.10;0.10;;;12.50;99.90;;;;;;5003300;28;20865;-64
2023/03/30 09:39:49;;;;;;;1.45;0.32;;;12.50;99.90;;;;;;5014908;28;20042;-65
2023/03/30 09:42:36;;;;;;;0.95;0.93;;;12.50;99.90;;;;;;4999586;28;20137;-64
2023/03/30 09:45:14;;;;;;;2.22;2.13;;;12.50;99.90;;;;;;4992696;28;20049;-64
2023/03/30 09:47:41;;;;;;;0.10;0.10;;;12.50;99.90;;;;;;5002491;28;20487;-64
2023/03/30 09:50:21;;;;;;;0.10;0.10;;;12.60;99.90;;;;;;5012429;28;20061;-64
2023/03/30 09:53:08;;;;;;;0.20;0.20;;;12.50;99.90;;;;;;5004597;28;20163;-64
2023/03/30 09:55:36;;;;;;;0.22;0.22;;;12.60;99.90;;;;;;5006447;28;20054;-64
2023/03/30 09:58:25;;;;;;;1.33;1.23;;;12.60;99.90;;;;;;5010331;28;20054;-67
2023/03/30 10:01:03;;;;;;;0.05;0.05;;;12.60;99.90;;;;;;5015388;28;20440;-67
2023/03/30 10:03:28;;;;;;;9.82;2.58;;;12.60;99.90;;;;;;5010146;28;20074;-67
2023/03/30 10:06:20;;;;;;;0.50;0.50;;;12.60;99.90;;;;;;4998171;28;20086;-67
2023/03/30 10:08:54;;;;;;;0.85;0.85;;;12.70;99.90;;;;;;5005981;28;20054;-67
2023/03/30 10:11:40;;;;;;;2.10;1.45;;;12.70;99.90;;;;;;5011773;28;20038;-64
2023/03/30 10:14:24;;;;;;;2.20;0.55;;;12.70;99.90;;;;;;5003215;28;20050;-66
2023/03/30 10:16:50;;;;;;;;;;;12.70;99.90;;;;;;5011033;28;20157;-66
2023/03/30 10:19:19;;;;;;;0.73;0.73;;;12.70;99.90;;;;;;5012729;28;20002;-66
2023/03/30 10:21:47;;;;;;;8.57;1.92;;;12.70;99.90;;;;;;5014152;28;20037;-66
2023/03/30 10:24:13;;;;;;;0.10;0.10;;;12.70;99.90;;;;;;5008853;28;20943;-65
2023/03/30 10:26:43;;;;;;;3.10;2.20;;;12.70;99.90;;;;;;4995663;28;20057;-66
2023/03/30 10:29:13;;;;;;;0.93;0.65;;;12.80;99.90;;;;;;5010430;28;20089;-66
2023/03/30 10:31:43;;;;;;;0.10;0.10;;;12.80;99.90;;;;;;5007681;28;20129;-66
2023/03/30 10:34:33;;;;;;;0.20;0.20;;;12.80;99.90;;;;;;5005430;28;20404;-66
2023/03/30 10:36:59;;;;;;;1.48;1.38;;;12.80;99.90;;;;;;5001350;28;20096;-65
2023/03/30 10:39:33;;;;;;;0.00;0.00;;;12.80;99.90;;;;;;5007215;28;20042;-66
2023/03/30 10:42:00;;;;;;;0.70;0.52;;;12.80;99.90;;;;;;5007487;28;20050;-66
2023/03/30 10:44:31;;;;;;;9.70;2.85;;;13.10;99.90;;;;;;5009684;28;20038;-66
2023/03/30 10:47:25;;;;;;;0.73;0.60;;;13.40;99.90;;;;;;5004959;28;20058;-66
2023/03/30 10:50:27;;;;;;;0.00;0.00;;;13.30;99.90;;;;;;4993926;28;20061;-66
2023/03/30 10:53:13;;;;;;;1.48;0.82;;;13.50;99.90;;;;;;5012665;28;20561;-65
2023/03/30 10:55:56;;;;;;;0.10;0.10;;;13.50;99.90;;;;;;4999312;28;20050;-66
2023/03/30 10:58:55;;;;;;;0.00;0.00;;;13.60;99.90;;;;;;5005450;28;20122;-66
2023/03/30 11:02:03;;;;;;;34.33;1.23;;;13.60;99.90;;;;;;5010494;28;20057;-66
2023/03/30 11:04:38;;;;;;;9.05;1.77;;;13.70;99.90;;;;;;5001095;28;20549;-66
2023/03/30 11:07:11;;;;;;;0.20;0.20;;;13.70;99.90;;;;;;5007258;28;20477;-66
2023/03/30 11:09:40;;;;;;;0.25;0.25;;;13.70;99.90;;;;;;5001122;28;20076;-66
2023/03/30 11:12:13;;;;;;;0.82;0.82;;;13.70;99.90;;;;;;4991404;28;20038;-66
2023/03/30 11:14:39;;;;;;;;;;;13.80;99.90;;;;;;5008712;28;20056;-66
2023/03/30 11:17:10;;;;;;;25.73;4.18;;;13.80;99.90;;;;;;5010632;28;19921;-66
2023/03/30 11:19:42;;;;;;;0.25;0.25;;;13.90;99.90;;;;;;5008585;28;20053;-66
2023/03/30 11:22:27;;;;;;;1.75;1.65;;;13.80;99.90;;;;;;5002305;28;20505;-66
2023/03/30 11:24:56;;;;;;;0.30;0.30;;;13.70;99.90;;;;;;5010331;28;20045;-66
2023/03/30 11:27:34;;;;;;;1.65;1.55;;;13.60;99.90;;;;;;5014858;28;20521;-66
2023/03/30 11:30:02;;;;;;;1.17;0.85;;;13.60;99.90;;;;;;5002269;28;20122;-66
2023/03/30 11:32:37;;;;;;;10.60;2.05;;;13.60;99.90;;;;;;4998530;28;20129;-66
2023/03/30 11:35:17;;;;;;;0.68;0.68;;;13.60;99.90;;;;;;5008250;28;20054;-66
2023/03/30 11:38:01;;;;;;;1.35;1.27;;;13.60;99.90;;;;;;5007884;28;20049;-66
2023/03/30 11:40:42;;;;;;;0.08;0.08;;;13.90;99.90;;;;;;5004026;28;20073;-66
2023/03/30 11:43:10;;;;;;;0.20;0.20;;;14.00;99.90;;;;;;5003828;28;20046;-66
2023/03/30 11:46:00;;;;;;;10.43;1.95;;;14.00;99.90;;;;;;5002698;28;20684;-66
2023/03/30 11:48:59;;;;;;;3.45;2.05;;;14.10;99.90;;;;;;5000242;28;20141;-66
2023/03/30 11:51:36;;;;;;;0.00;0.00;;;14.10;99.90;;;;;;5005111;28;20045;-66
2023/03/30 11:54:31;;;;;;;4.13;1.65;;;14.30;99.90;;;;;;4997917;28;20037;-66
2023/03/30 11:57:30;;;;;;;0.10;0.10;;;14.30;99.90;;;;;;4998418;28;20430;-66
2023/03/30 12:00:21;;;;;;;0.25;0.25;;;14.30;99.90;;;;;;5003000;28;20089;-66
2023/03/30 12:02:57;;;;;;;0.15;0.15;;;14.60;99.90;;;;;;4997894;28;20046;-66
2023/03/30 12:05:35;;;;;;;7.13;1.80;;;14.60;99.90;;;;;;5001497;28;20128;-66
2023/03/30 12:08:26;;;;;;;4.38;1.58;;;14.60;99.90;;;;;;5019869;28;20049;-66
2023/03/30 12:11:01;;;;;;;0.13;0.13;;;14.70;99.90;;;;;;5000293;28;20199;-66
2023/03/30 12:13:27;;;;;;;8.05;2.17;;;14.90;99.90;;;;;;4997665;28;20054;-66
2023/03/30 12:16:11;;;;;;;1.15;1.15;;;14.90;99.90;;;;;;5001791;28;20172;-65
2023/03/30 12:18:50;;;;;;;0.13;0.13;;;15.10;99.90;;;;;;5007376;28;20058;-66
2023/03/30 12:21:32;;;;;;;11.60;3.17;;;15.20;99.90;;;;;;5003800;28;20444;-66
2023/03/30 12:24:16;;;;;;;1.20;1.10;;;15.70;99.90;;;;;;5003034;28;20433;-67
2023/03/30 12:26:42;;;;;;;;;;;15.80;99.90;;;;;;5002862;28;20141;-66
2023/03/30 12:29:11;;;;;;;0.10;0.10;;;16.30;99.90;;;;;;5006380;28;20424;-66
2023/03/30 12:31:53;;;;;;;0.00;0.00;;;16.20;99.90;;;;;;5012429;28;20075;-66
2023/03/30 12:34:20;;;;;;;1.75;1.65;;;16.20;99.90;;;;;;5002432;28;20434;-66
2023/03/30 12:36:48;;;;;;;0.20;0.20;;;16.10;99.90;;;;;;5012164;28;20054;-66
2023/03/30 12:39:24;;;;;;;1.35;1.25;;;16.20;99.90;;;;;;5012820;28;20050;-66
2023/03/30 12:42:03;;;;;;;9.00;1.00;;;16.20;99.90;;;;;;5002761;28;20069;-65
2023/03/30 12:45:02;;;;;;;2.08;1.58;;;16.20;99.90;;;;;;5006140;28;20144;-66
2023/03/30 12:47:34;;;;;;;10.38;3.20;;;16.30;99.90;;;;;;5004113;28;20112;-66
2023/03/30 12:50:16;;;;;;;0.85;0.63;;;16.40;99.90;;;;;;5008221;28;20050;-66
2023/03/30 12:53:08;;;;;;;1.13;1.02;;;16.50;99.90;;;;;;4999808;28;20112;-66
2023/03/30 12:55:56;;;;;;;0.10;0.10;;;16.70;99.90;;;;;;5012091;28;20092;-66
2023/03/30 12:58:42;;;;;;;0.38;0.38;;;16.50;99.90;;;;;;4996340;28;20050;-66
2023/03/30 13:01:36;;;;;;;0.98;0.98;;;16.90;99.90;;;;;;5015900;28;20759;-66
2023/03/30 13:04:09;;;;;;;0.68;0.68;;;16.80;99.90;;;;;;5005100;28;20042;-66
2023/03/30 13:06:40;;;;;;;1.02;0.40;;;16.80;99.90;;;;;;5024279;28;20080;-66
2023/03/30 13:09:14;;;;;;;0.10;0.10;;;16.90;99.90;;;;;;5012283;28;20053;-66
2023/03/30 13:11:48;;;;;;;1.20;1.13;;;16.90;99.90;;;;;;5016521;28;20037;-65